Time;durP1;ratioP1;P1;durP2;ratioP2;P2;SDS_P1;SDS_P2;PMS_P1;PMS_P2;Temp;Humidity;BMP_temperature;BMP_pressure;BME280_temperature;BME280_humidity;BME280_pressure;Samples;Min_cycle;Max_cycle;Signal;HPM_P1;HPM_P2
2022/10/04 00:01:22;;;;;;;13.70;5.17;;;;;;;;;;5035328;28;20187;-81
2022/10/04 00:04:04;;;;;;;12.07;5.93;;;;;;;;;;5045938;28;20212;-81
2022/10/04 00:06:30;;;;;;;11.60;5.23;;;;;;;;;;5036387;28;20175;-82
2022/10/04 00:09:08;;;;;;;12.00;5.87;;;;;;;;;;5038188;28;20184;-82
2022/10/04 00:11:35;;;;;;;13.53;5.50;;;;;;;;;;5048502;28;20192;-82
2022/10/04 00:14:06;;;;;;;13.10;5.10;;;;;;;;;;5034457;28;20225;-82
2022/10/04 00:16:34;;;;;;;8.93;5.27;;;;;;;;;;5048998;28;20192;-82
2022/10/04 00:19:20;;;;;;;11.50;5.47;;;;;;;;;;5051212;28;20204;-82
2022/10/04 01:03:51;;;;;;;10.63;5.43;;;;;;;;;;5034766;28;20195;-80
2022/10/04 01:06:19;;;;;;;10.77;5.60;;;;;;;;;;5024431;28;20183;-80
2022/10/04 01:08:47;;;;;;;12.67;5.73;;;;;;;;;;5033585;28;20181;-78
2022/10/04 01:11:18;;;;;;;10.63;5.63;;;;;;;;;;5036870;28;20188;-78
2022/10/04 01:13:59;;;;;;;13.23;5.67;;;;;;;;;;5034848;28;20189;-78
2022/10/04 01:16:26;;;;;;;11.37;5.33;;;;;;;;;;5033560;28;20279;-78
2022/10/04 01:18:52;;;;;;;11.10;4.93;;;;;;;;;;5026131;28;20346;-78
2022/10/04 01:21:19;;;;;;;10.50;5.13;;;;;;;;;;5053445;28;20176;-78
2022/10/04 01:23:46;;;;;;;8.30;5.27;;;;;;;;;;5043335;28;20214;-78
2022/10/04 01:26:33;;;;;;;11.53;5.63;;;;;;;;;;5033275;28;20323;-78
2022/10/04 01:28:59;;;;;;;10.70;5.43;;;;;;;;;;5034421;28;20206;-80
2022/10/04 01:31:26;;;;;;;10.50;5.20;;;;;;;;;;5022534;28;20204;-78
2022/10/04 01:33:52;;;;;;;12.13;5.63;;;;;;;;;;5028269;28;20188;-78
2022/10/04 01:36:19;;;;;;;15.63;5.80;;;;;;;;;;5017495;28;20204;-86
2022/10/04 01:38:45;;;;;;;15.40;5.43;;;;;;;;;;5026801;28;20216;-87
2022/10/04 01:41:13;;;;;;;9.53;5.33;;;;;;;;;;5016989;28;20180;-86
2022/10/04 01:43:41;;;;;;;14.47;6.30;;;;;;;;;;5042441;28;20263;-87
2022/10/04 01:46:11;;;;;;;9.00;5.63;;;;;;;;;;5033218;28;20184;-87
2022/10/04 01:48:37;;;;;;;11.13;6.20;;;;;;;;;;5038139;28;20211;-87
2022/10/04 01:51:13;;;;;;;11.43;5.23;;;;;;;;;;5043728;28;20189;-87
2022/10/04 01:53:46;;;;;;;13.07;5.63;;;;;;;;;;5033862;28;20208;-80
2022/10/04 01:56:14;;;;;;;12.43;5.60;;;;;;;;;;5034054;28;20267;-80
2022/10/04 01:58:46;;;;;;;12.23;5.40;;;;;;;;;;5037183;28;20243;-80
2022/10/04 02:01:29;;;;;;;9.60;5.00;;;;;;;;;;5023900;28;20256;-81
2022/10/04 02:04:21;;;;;;;10.07;5.30;;;;;;;;;;5038508;28;20184;-81
2022/10/04 02:06:51;;;;;;;10.83;4.90;;;;;;;;;;5030797;28;20231;-81
2022/10/04 02:09:23;;;;;;;10.20;5.17;;;;;;;;;;5038194;28;20266;-82
2022/10/04 02:11:51;;;;;;;11.07;5.77;;;;;;;;;;5033676;28;20191;-83
2022/10/04 02:14:19;;;;;;;10.70;5.40;;;;;;;;;;5022452;28;20235;-83
2022/10/04 02:16:46;;;;;;;13.20;5.27;;;;;;;;;;5032578;28;20181;-83
2022/10/04 02:19:12;;;;;;;9.30;5.53;;;;;;;;;;5031006;28;20220;-82
2022/10/04 02:21:38;;;;;;;9.43;5.33;;;;;;;;;;5033122;28;20267;-82
2022/10/04 02:24:05;;;;;;;13.07;5.53;;;;;;;;;;5036893;28;20177;-82
2022/10/04 02:26:31;;;;;;;11.73;5.77;;;;;;;;;;5029955;28;20255;-80
2022/10/04 02:28:57;;;;;;;10.27;6.13;;;;;;;;;;5036452;28;20196;-80
2022/10/04 02:34:10;;;;;;;11.93;6.20;;;;;;;;;;5033941;28;20223;-80
2022/10/04 02:36:38;;;;;;;10.50;5.80;;;;;;;;;;5031494;28;20235;-80
2022/10/04 02:39:07;;;;;;;12.13;6.27;;;;;;;;;;5028569;28;20299;-79
2022/10/04 02:41:33;;;;;;;13.13;5.60;;;;;;;;;;5032308;28;20215;-79
2022/10/04 02:43:59;;;;;;;10.23;5.50;;;;;;;;;;5032022;28;20181;-82
2022/10/04 02:46:34;;;;;;;12.27;6.23;;;;;;;;;;5031563;28;20204;-82
2022/10/04 02:49:11;;;;;;;11.13;6.30;;;;;;;;;;5031857;28;20188;-81
2022/10/04 02:51:45;;;;;;;9.13;6.70;;;;;;;;;;5033502;28;20189;-83
2022/10/04 02:54:27;;;;;;;9.63;6.67;;;;;;;;;;5043262;28;20189;-82
2022/10/04 02:56:53;;;;;;;13.00;7.60;;;;;;;;;;5032510;28;20199;-82
2022/10/04 02:59:20;;;;;;;15.27;7.40;;;;;;;;;;5040198;28;20209;-83
2022/10/04 03:01:52;;;;;;;12.27;7.83;;;;;;;;;;5036239;28;20180;-82
2022/10/04 03:04:20;;;;;;;11.37;7.40;;;;;;;;;;5038165;28;20194;-82
2022/10/04 03:06:46;;;;;;;14.77;7.73;;;;;;;;;;5036063;28;20183;-82
2022/10/04 03:09:13;;;;;;;10.83;6.90;;;;;;;;;;5044487;28;20188;-82
2022/10/04 03:11:39;;;;;;;11.93;6.90;;;;;;;;;;5036869;28;20199;-82
2022/10/04 03:14:09;;;;;;;8.20;6.00;;;;;;;;;;5037311;28;20180;-82
2022/10/04 03:16:36;;;;;;;12.43;6.37;;;;;;;;;;5037362;28;20204;-87
2022/10/04 03:19:03;;;;;;;8.23;5.90;;;;;;;;;;5035997;28;20208;-89
2022/10/04 03:21:30;;;;;;;10.60;5.90;;;;;;;;;;5019842;28;20177;-88
2022/10/04 03:23:59;;;;;;;11.03;6.20;;;;;;;;;;5035677;28;20275;-88
2022/10/04 03:26:40;;;;;;;14.90;6.90;;;;;;;;;;5016609;28;20191;-88
2022/10/04 03:29:10;;;;;;;15.73;6.70;;;;;;;;;;5036273;28;20187;-87
2022/10/04 03:31:50;;;;;;;11.90;6.60;;;;;;;;;;5036413;28;20195;-88
2022/10/04 03:34:17;;;;;;;15.57;6.87;;;;;;;;;;5046634;28;20180;-80
2022/10/04 03:36:45;;;;;;;10.17;6.23;;;;;;;;;;5044882;28;20204;-80
2022/10/04 03:39:16;;;;;;;11.40;6.57;;;;;;;;;;5037517;28;20208;-80
2022/10/04 03:41:43;;;;;;;10.77;6.20;;;;;;;;;;5035676;28;20179;-81
2022/10/04 03:44:16;;;;;;;8.83;6.87;;;;;;;;;;5038780;28;20184;-80
2022/10/04 03:46:44;;;;;;;10.60;6.47;;;;;;;;;;5036215;28;20199;-80
2022/10/04 03:49:12;;;;;;;9.50;6.67;;;;;;;;;;5032113;28;20219;-81
2022/10/04 03:51:43;;;;;;;12.50;6.90;;;;;;;;;;5042130;28;20208;-80
2022/10/04 03:54:10;;;;;;;12.00;6.33;;;;;;;;;;5034963;28;20278;-79
2022/10/04 03:56:36;;;;;;;11.53;7.13;;;;;;;;;;5018431;28;20185;-80
2022/10/04 03:59:04;;;;;;;11.40;6.67;;;;;;;;;;5030078;28;20227;-80
2022/10/04 04:01:33;;;;;;;10.53;7.30;;;;;;;;;;5047244;28;20184;-79
2022/10/04 04:04:11;;;;;;;10.23;7.10;;;;;;;;;;5034875;28;20184;-79
2022/10/04 04:06:49;;;;;;;13.87;7.03;;;;;;;;;;5034986;28;20254;-81
2022/10/04 04:09:23;;;;;;;15.87;7.50;;;;;;;;;;5035685;28;20184;-82
2022/10/04 04:11:50;;;;;;;11.13;6.80;;;;;;;;;;5032835;28;20262;-81
2022/10/04 04:14:21;;;;;;;11.50;6.90;;;;;;;;;;5036108;28;20185;-82
2022/10/04 04:16:47;;;;;;;10.27;7.07;;;;;;;;;;5035784;28;20188;-82
2022/10/04 04:19:15;;;;;;;10.50;7.23;;;;;;;;;;5017997;28;20239;-82
2022/10/04 04:21:41;;;;;;;13.47;7.43;;;;;;;;;;5034163;28;20227;-83
2022/10/04 04:24:14;;;;;;;10.37;7.20;;;;;;;;;;5033700;28;20275;-83
2022/10/04 04:26:45;;;;;;;14.47;8.63;;;;;;;;;;5038637;28;20235;-83
2022/10/04 04:29:11;;;;;;;10.80;7.80;;;;;;;;;;5086679;22;20228;-88
2022/10/04 04:31:43;;;;;;;11.57;7.83;;;;;;;;;;5026893;28;20184;-87
2022/10/04 04:34:23;;;;;;;11.50;8.10;;;;;;;;;;5033729;28;20226;-88
2022/10/04 04:36:51;;;;;;;10.47;8.60;;;;;;;;;;5034710;28;20192;-88
2022/10/04 04:42:04;;;;;;;19.90;14.97;;;;;;;;;;5050429;28;20312;-79
2022/10/04 04:44:30;;;;;;;17.87;13.27;;;;;;;;;;5037168;28;20194;-79
2022/10/04 04:46:59;;;;;;;19.37;14.00;;;;;;;;;;5039028;28;20185;-78
2022/10/04 04:49:26;;;;;;;22.00;14.10;;;;;;;;;;5039579;28;20243;-79
2022/10/04 04:51:52;;;;;;;18.30;12.93;;;;;;;;;;5038133;28;20203;-78
2022/10/04 04:54:23;;;;;;;25.87;14.63;;;;;;;;;;5016290;28;20250;-79
2022/10/04 04:56:51;;;;;;;16.47;13.60;;;;;;;;;;5033527;28;20231;-79
2022/10/04 04:59:18;;;;;;;17.93;12.37;;;;;;;;;;5025716;28;20342;-79
2022/10/04 05:01:45;;;;;;;21.17;13.43;;;;;;;;;;5033221;28;20187;-78
2022/10/04 05:04:11;;;;;;;18.13;13.33;;;;;;;;;;5031712;28;20275;-79
2022/10/04 05:06:39;;;;;;;16.13;12.90;;;;;;;;;;5034989;28;20204;-79
2022/10/04 05:09:25;;;;;;;15.77;11.63;;;;;;;;;;5030981;28;20173;-78
2022/10/04 05:11:53;;;;;;;16.00;11.93;;;;;;;;;;5015506;28;20188;-78
2022/10/04 05:14:19;;;;;;;15.67;11.43;;;;;;;;;;5033852;28;20214;-81
2022/10/04 05:16:45;;;;;;;17.33;11.00;;;;;;;;;;5017427;28;20230;-81
2022/10/04 05:19:16;;;;;;;13.83;11.13;;;;;;;;;;5034086;28;20282;-81
2022/10/04 05:21:46;;;;;;;17.87;11.20;;;;;;;;;;5033936;28;20180;-81
2022/10/04 05:24:14;;;;;;;13.17;9.97;;;;;;;;;;5033190;28;20180;-81
2022/10/04 05:26:41;;;;;;;16.23;11.03;;;;;;;;;;5033253;28;20200;-81
2022/10/04 05:29:15;;;;;;;12.67;10.60;;;;;;;;;;5024659;28;20284;-81
2022/10/04 05:31:41;;;;;;;11.20;9.90;;;;;;;;;;5033432;28;20191;-88
2022/10/04 05:34:17;;;;;;;15.50;11.53;;;;;;;;;;5033251;28;20188;-88
2022/10/04 05:36:46;;;;;;;18.10;11.80;;;;;;;;;;5048710;28;20175;-87
2022/10/04 05:39:19;;;;;;;19.13;11.30;;;;;;;;;;5034589;28;20212;-88
2022/10/04 05:41:45;;;;;;;17.47;11.33;;;;;;;;;;5032845;28;20211;-87
2022/10/04 05:44:37;;;;;;;14.53;11.67;;;;;;;;;;5034321;28;20216;-87
2022/10/04 05:47:06;;;;;;;19.07;12.07;;;;;;;;;;5030455;28;20184;-81
2022/10/04 05:49:56;;;;;;;15.93;11.63;;;;;;;;;;5033162;28;20250;-81
2022/10/04 05:52:26;;;;;;;16.00;13.00;;;;;;;;;;5031077;28;20189;-81
2022/10/04 05:55:11;;;;;;;17.77;13.43;;;;;;;;;;5034662;28;20169;-81
2022/10/04 05:57:53;;;;;;;17.83;12.97;;;;;;;;;;5033139;28;20177;-81
2022/10/04 06:00:20;;;;;;;20.33;13.70;;;;;;;;;;5034286;28;20200;-81
2022/10/04 06:03:02;;;;;;;18.90;13.83;;;;;;;;;;5033756;28;20237;-81
2022/10/04 06:05:40;;;;;;;17.03;12.90;;;;;;;;;;5028064;28;20259;-81
2022/10/04 06:08:16;;;;;;;21.07;14.73;;;;;;;;;;5033954;28;20180;-81
2022/10/04 06:10:42;;;;;;;21.27;15.60;;;;;;;;;;5035368;28;20179;-81
2022/10/04 06:13:28;;;;;;;22.37;15.53;;;;;;;;;;5051960;28;20180;-82
2022/10/04 06:16:21;;;;;;;22.37;16.67;;;;;;;;;;5030606;28;20181;-82
2022/10/04 06:18:57;;;;;;;19.80;14.97;;;;;;;;;;5010879;28;20224;-82
2022/10/04 06:21:30;;;;;;;25.70;15.70;;;;;;;;;;5036617;28;20180;-78
2022/10/04 06:23:56;;;;;;;22.03;16.17;;;;;;;;;;5032178;28;20177;-78
2022/10/04 06:26:25;;;;;;;24.57;15.63;;;;;;;;;;5032287;28;20177;-85
2022/10/04 06:28:53;;;;;;;20.90;16.07;;;;;;;;;;5049474;28;20239;-85
2022/10/04 06:31:25;;;;;;;23.53;16.43;;;;;;;;;;5030308;28;20211;-85
2022/10/04 06:34:07;;;;;;;23.07;17.90;;;;;;;;;;5034937;28;20185;-86
2022/10/04 06:36:33;;;;;;;24.93;18.20;;;;;;;;;;5045621;28;20238;-81
2022/10/04 06:39:18;;;;;;;24.57;18.00;;;;;;;;;;5040899;28;20216;-81
2022/10/04 06:41:47;;;;;;;29.27;18.50;;;;;;;;;;5035778;28;20188;-85
2022/10/04 06:44:18;;;;;;;24.93;18.53;;;;;;;;;;5049495;28;20267;-84
2022/10/04 06:46:50;;;;;;;26.70;19.40;;;;;;;;;;5042672;28;20220;-85
2022/10/04 06:49:22;;;;;;;24.77;18.47;;;;;;;;;;5037643;28;20267;-82
2022/10/04 06:52:03;;;;;;;23.87;18.53;;;;;;;;;;5037870;28;20181;-82
2022/10/04 06:54:38;;;;;;;24.77;17.93;;;;;;;;;;5023854;28;20263;-80
2022/10/04 06:57:24;;;;;;;24.17;18.50;;;;;;;;;;5035871;28;20184;-80
2022/10/04 07:00:11;;;;;;;31.83;19.37;;;;;;;;;;5033505;28;20227;-80
2022/10/04 07:02:42;;;;;;;29.27;19.23;;;;;;;;;;5043638;28;20189;-81
2022/10/04 07:05:41;;;;;;;30.03;19.30;;;;;;;;;;5032247;28;20189;-81
2022/10/04 07:08:32;;;;;;;25.97;18.73;;;;;;;;;;5023630;28;20219;-81
2022/10/04 07:11:20;;;;;;;26.90;19.70;;;;;;;;;;5044226;28;20188;-86
2022/10/04 07:14:07;;;;;;;24.33;18.17;;;;;;;;;;5030343;28;20188;-85
2022/10/04 07:16:46;;;;;;;24.03;18.43;;;;;;;;;;5037473;28;20187;-82
2022/10/04 07:19:16;;;;;;;23.30;17.20;;;;;;;;;;5043952;28;20299;-81
2022/10/04 07:21:49;;;;;;;25.30;18.80;;;;;;;;;;5042753;28;20187;-81
2022/10/04 07:24:24;;;;;;;24.00;18.10;;;;;;;;;;5034092;28;20194;-81
2022/10/04 07:26:51;;;;;;;24.03;17.53;;;;;;;;;;5032703;28;20176;-79
2022/10/04 07:29:35;;;;;;;24.53;17.47;;;;;;;;;;5048219;28;20232;-78
2022/10/04 07:32:08;;;;;;;25.37;17.80;;;;;;;;;;5038601;28;20180;-78
2022/10/04 07:34:42;;;;;;;20.20;16.80;;;;;;;;;;5050004;28;20187;-78
2022/10/04 07:37:11;;;;;;;23.37;17.60;;;;;;;;;;5032258;28;20266;-78
2022/10/04 07:39:43;;;;;;;21.73;16.40;;;;;;;;;;5040225;28;20212;-79
2022/10/04 07:42:15;;;;;;;23.70;17.00;;;;;;;;;;5036908;28;20173;-79
2022/10/04 07:44:46;;;;;;;25.77;16.60;;;;;;;;;;5046343;28;20254;-86
2022/10/04 07:47:13;;;;;;;21.27;16.30;;;;;;;;;;5045244;28;20188;-85
2022/10/04 07:49:39;;;;;;;19.97;15.83;;;;;;;;;;5036386;28;20173;-85
2022/10/04 07:52:17;;;;;;;20.40;14.13;;;;;;;;;;5035477;28;20196;-85
2022/10/04 07:55:00;;;;;;;23.87;13.97;;;;;;;;;;5035721;28;20192;-85
2022/10/04 07:57:32;;;;;;;17.60;13.00;;;;;;;;;;5036645;28;20194;-86
2022/10/04 08:00:18;;;;;;;18.13;12.77;;;;;;;;;;5030376;28;20314;-78
2022/10/04 08:02:47;;;;;;;18.35;13.30;;;;;;;;;;5042116;28;20534;-77
2022/10/04 08:05:19;;;;;;;16.57;12.90;;;;;;;;;;5049455;28;20180;-78
2022/10/04 08:07:48;;;;;;;16.10;12.80;;;;;;;;;;5052186;28;20199;-78
2022/10/04 08:10:21;;;;;;;16.55;13.20;;;;;;;;;;5053429;28;20415;-78
2022/10/04 08:12:53;;;;;;;18.35;13.00;;;;;;;;;;5041995;28;20428;-77
2022/10/04 08:15:25;;;;;;;14.27;11.33;;;;;;;;;;5037987;28;20184;-78
2022/10/04 08:18:11;;;;;;;18.35;12.20;;;;;;;;;;5035253;28;20434;-80
2022/10/04 08:20:40;;;;;;;14.68;11.65;;;;;;;;;;5046904;28;20429;-81
2022/10/04 08:23:25;;;;;;;16.37;10.20;;;;;;;;;;5049655;28;20174;-81
2022/10/04 08:25:51;;;;;;;15.90;9.30;;;;;;;;;;5034682;28;20173;-81
2022/10/04 08:31:30;;;;;;;13.97;8.93;;;;;;;;;;5033565;28;20208;-81
2022/10/04 08:34:20;;;;;;;10.23;7.57;;;;;;;;;;5027652;28;20177;-87
2022/10/04 08:36:49;;;;;;;9.57;7.23;;;;;;;;;;5031073;28;20183;-87
2022/10/04 08:39:23;;;;;;;11.93;7.83;;;;;;;;;;5064057;28;20207;-86
2022/10/04 08:42:03;;;;;;;9.67;7.40;;;;;;;;;;5051226;28;20176;-87
2022/10/04 08:44:54;;;;;;;8.93;6.67;;;;;;;;;;5025317;28;20181;-87
2022/10/04 08:47:28;;;;;;;10.10;7.20;;;;;;;;;;5032303;28;20191;-88
2022/10/04 08:49:57;;;;;;;12.30;7.50;;;;;;;;;;5039671;28;20246;-82
2022/10/04 08:52:26;;;;;;;11.37;7.87;;;;;;;;;;5037000;28;20287;-82
2022/10/04 08:55:10;;;;;;;12.70;7.20;;;;;;;;;;5020901;28;20185;-82
2022/10/04 08:57:36;;;;;;;13.38;7.32;;;;;;;;;;5030122;28;20441;-82
2022/10/04 09:00:23;;;;;;;12.50;7.27;;;;;;;;;;5033189;28;20430;-82
2022/10/04 09:02:52;;;;;;;12.73;7.07;;;;;;;;;;5025803;28;20434;-81
2022/10/04 09:05:24;;;;;;;10.83;6.90;;;;;;;;;;5054056;28;20172;-82
2022/10/04 09:08:03;;;;;;;15.17;7.60;;;;;;;;;;5051287;28;20195;-87
2022/10/04 09:10:49;;;;;;;15.57;7.33;;;;;;;;;;5033787;28;20181;-87
2022/10/04 09:13:32;;;;;;;15.57;7.03;;;;;;;;;;5036532;28;20180;-87
2022/10/04 09:16:12;;;;;;;12.00;6.57;;;;;;;;;;5054522;28;20259;-87
2022/10/04 09:18:52;;;;;;;9.07;6.70;;;;;;;;;;5050069;28;20279;-82
2022/10/04 09:21:21;;;;;;;9.47;6.33;;;;;;;;;;5034338;28;20255;-82
2022/10/04 09:23:56;;;;;;;11.93;6.30;;;;;;;;;;5033613;28;20188;-82
2022/10/04 09:26:42;;;;;;;10.10;6.13;;;;;;;;;;5032809;28;20191;-87
2022/10/04 09:29:15;;;;;;;11.87;6.27;;;;;;;;;;5039268;28;20219;-88
2022/10/04 09:32:00;;;;;;;9.80;6.47;;;;;;;;;;5046789;28;20177;-80
2022/10/04 09:34:32;;;;;;;10.20;6.53;;;;;;;;;;5033294;28;20188;-88
2022/10/04 09:37:17;;;;;;;8.50;6.67;;;;;;;;;;5014590;28;20183;-87
2022/10/04 09:40:12;;;;;;;13.23;6.97;;;;;;;;;;5033065;28;20203;-87
2022/10/04 09:43:16;;;;;;;10.17;7.00;;;;;;;;;;5041696;28;20192;-88
2022/10/04 09:46:06;;;;;;;14.90;7.03;;;;;;;;;;4999587;28;20181;-87
2022/10/04 09:48:35;;;;;;;13.07;6.73;;;;;;;;;;4996892;28;20244;-86
2022/10/04 09:51:13;;;;;;;9.00;6.17;;;;;;;;;;5014453;28;20188;-88
2022/10/04 09:53:43;;;;;;;10.63;6.17;;;;;;;;;;5005722;28;20204;-87
2022/10/04 09:56:10;;;;;;;9.67;6.97;;;;;;;;;;5027620;28;20275;-88
2022/10/04 09:58:52;;;;;;;7.33;6.20;;;;;;;;;;5041298;28;20201;-87
2022/10/04 10:01:18;;;;;;;8.47;6.20;;;;;;;;;;5069220;28;20233;-88
2022/10/04 10:03:53;;;;;;;9.43;6.47;;;;;;;;;;5052866;28;20176;-87
2022/10/04 10:06:31;;;;;;;10.40;6.03;;;;;;;;;;5030329;28;20246;-88
2022/10/04 10:09:20;;;;;;;11.03;6.77;;;;;;;;;;5030688;28;20196;-79
2022/10/04 10:15:09;;;;;;;11.53;6.50;;;;;;;;;;4998590;28;20256;-80
2022/10/04 10:17:39;;;;;;;11.88;6.72;;;;;;;;;;5025738;28;20428;-80
2022/10/04 10:20:25;;;;;;;9.73;6.17;;;;;;;;;;5036361;28;20212;-80
2022/10/04 10:22:54;;;;;;;11.60;6.60;;;;;;;;;;5030047;28;20172;-80
2022/10/04 10:25:24;;;;;;;10.60;6.30;;;;;;;;;;5045958;28;20259;-80
2022/10/04 10:27:56;;;;;;;12.37;6.60;;;;;;;;;;5046040;28;20247;-83
2022/10/04 10:30:37;;;;;;;10.47;6.30;;;;;;;;;;5032430;28;20193;-82
2022/10/04 10:33:30;;;;;;;10.43;6.30;;;;;;;;;;5033118;28;20184;-83
2022/10/04 10:36:09;;;;;;;9.60;5.83;;;;;;;;;;5028769;28;20192;-83
2022/10/04 10:38:47;;;;;;;11.37;6.10;;;;;;;;;;5020824;28;20204;-82
2022/10/04 10:41:17;;;;;;;11.43;6.27;;;;;;;;;;5036637;28;20184;-82
2022/10/04 10:43:54;;;;;;;10.43;5.45;;;;;;;;;;5032084;28;20275;-83
2022/10/04 10:46:30;;;;;;;12.05;6.20;;;;;;;;;;5040171;28;20184;-79
2022/10/04 10:49:08;;;;;;;7.28;5.25;;;;;;;;;;5042656;28;20179;-80
2022/10/04 10:51:49;;;;;;;8.13;5.40;;;;;;;;;;5046373;28;20195;-80
2022/10/04 10:54:18;;;;;;;7.97;5.05;;;;;;;;;;5025949;28;20216;-80
2022/10/04 10:56:47;;;;;;;9.63;5.53;;;;;;;;;;5021798;28;20184;-80
2022/10/04 10:59:16;;;;;;;10.10;5.53;;;;;;;;;;5040418;28;20226;-80
2022/10/04 11:02:03;;;;;;;11.23;5.88;;;;;;;;;;5034284;28;20177;-82
2022/10/04 11:04:48;;;;;;;7.65;5.25;;;;;;;;;;5034664;28;20323;-82
2022/10/04 11:07:19;;;;;;;10.18;5.22;;;;;;;;;;5030523;28;20192;-82
2022/10/04 11:09:45;;;;;;;7.70;4.90;;;;;;;;;;5035433;28;20210;-82
2022/10/04 11:12:31;;;;;;;9.50;5.40;;;;;;;;;;5027433;28;20279;-82
2022/10/04 11:15:19;;;;;;;10.13;5.65;;;;;;;;;;5017321;28;20193;-79
2022/10/04 11:17:57;;;;;;;10.27;5.60;;;;;;;;;;5014270;28;20165;-79
2022/10/04 11:20:43;;;;;;;8.15;5.40;;;;;;;;;;5037502;28;20233;-87
2022/10/04 11:23:27;;;;;;;9.63;5.80;;;;;;;;;;5028437;28;20561;-88
2022/10/04 11:26:25;;;;;;;11.25;6.18;;;;;;;;;;5027594;28;20491;-87
2022/10/04 11:29:19;;;;;;;9.68;5.68;;;;;;;;;;5021240;28;20229;-87
2022/10/04 11:32:00;;;;;;;9.35;5.75;;;;;;;;;;5025319;28;20207;-87
2022/10/04 11:34:26;;;;;;;10.50;5.53;;;;;;;;;;5032793;28;20228;-87
2022/10/04 11:37:03;;;;;;;8.60;5.88;;;;;;;;;;5035686;28;20199;-88
2022/10/04 11:39:40;;;;;;;10.00;5.95;;;;;;;;;;5042948;28;20204;-87
2022/10/04 11:42:16;;;;;;;10.48;6.05;;;;;;;;;;5041322;28;20235;-88
2022/10/04 11:44:53;;;;;;;7.85;5.32;;;;;;;;;;5036423;28;20271;-88
2022/10/04 11:47:22;;;;;;;10.20;5.10;;;;;;;;;;5047946;28;20199;-87
2022/10/04 11:49:55;;;;;;;10.13;5.72;;;;;;;;;;5046956;28;20184;-86
2022/10/04 11:52:36;;;;;;;7.85;5.38;;;;;;;;;;5037423;28;20260;-88
2022/10/04 11:55:19;;;;;;;11.23;5.80;;;;;;;;;;5036215;28;20203;-81
2022/10/04 11:57:45;;;;;;;10.93;5.60;;;;;;;;;;5036164;28;20184;-86
2022/10/04 12:00:17;;;;;;;8.47;5.43;;;;;;;;;;5039201;28;20261;-87
2022/10/04 12:03:04;;;;;;;7.23;5.73;;;;;;;;;;5034800;28;20187;-86
2022/10/04 12:05:40;;;;;;;11.30;5.97;;;;;;;;;;5027697;28;20183;-86
2022/10/04 12:08:21;;;;;;;10.53;5.53;;;;;;;;;;5041542;28;20211;-88
2022/10/04 12:11:06;;;;;;;10.20;5.63;;;;;;;;;;5045315;28;20188;-87
2022/10/04 12:13:52;;;;;;;11.97;5.80;;;;;;;;;;5029383;28;20191;-88
2022/10/04 12:16:28;;;;;;;10.63;5.43;;;;;;;;;;5034903;28;20203;-87
2022/10/04 12:19:00;;;;;;;9.80;4.80;;;;;;;;;;5034670;28;20218;-87
2022/10/04 12:21:44;;;;;;;8.83;4.63;;;;;;;;;;5034321;28;20250;-82
2022/10/04 12:24:13;;;;;;;6.73;5.07;;;;;;;;;;5016278;28;20197;-82
2022/10/04 12:26:46;;;;;;;9.70;4.90;;;;;;;;;;5032997;28;20189;-82
2022/10/04 12:29:12;;;;;;;7.07;4.40;;;;;;;;;;5034150;28;20254;-81
2022/10/04 12:31:43;;;;;;;11.63;4.77;;;;;;;;;;5035113;28;20189;-81
2022/10/04 12:34:15;;;;;;;10.00;4.47;;;;;;;;;;5031914;28;20185;-81
2022/10/04 12:37:00;;;;;;;7.10;4.80;;;;;;;;;;5044484;28;20179;-81
2022/10/04 12:39:32;;;;;;;7.90;4.33;;;;;;;;;;5035943;28;20204;-81
2022/10/04 12:42:07;;;;;;;8.80;4.60;;;;;;;;;;5034379;28;20252;-82
2022/10/04 12:44:39;;;;;;;6.97;4.17;;;;;;;;;;5039956;28;20184;-83
2022/10/04 12:47:05;;;;;;;9.30;4.80;;;;;;;;;;5035059;28;20180;-82
2022/10/04 12:49:48;;;;;;;8.90;4.70;;;;;;;;;;5034547;28;20184;-82
2022/10/04 12:52:23;;;;;;;10.13;4.20;;;;;;;;;;5034359;28;20184;-82
2022/10/04 12:55:09;;;;;;;9.53;4.60;;;;;;;;;;5033935;28;20219;-82
2022/10/04 12:57:44;;;;;;;9.60;4.50;;;;;;;;;;5035039;28;20188;-81
2022/10/04 13:00:16;;;;;;;10.07;4.40;;;;;;;;;;5038604;28;20199;-86
2022/10/04 13:02:46;;;;;;;10.57;4.47;;;;;;;;;;5028828;28;20188;-88
2022/10/04 13:05:31;;;;;;;10.87;4.00;;;;;;;;;;5045070;28;20231;-88
2022/10/04 13:08:11;;;;;;;6.80;4.17;;;;;;;;;;5037380;28;20192;-88
2022/10/04 13:10:46;;;;;;;5.80;3.90;;;;;;;;;;5032621;28;20192;-81
2022/10/04 13:13:15;;;;;;;7.80;3.90;;;;;;;;;;5034766;28;20269;-82
2022/10/04 13:15:57;;;;;;;8.83;4.00;;;;;;;;;;5037912;28;20237;-79
2022/10/04 13:18:33;;;;;;;6.80;4.20;;;;;;;;;;5053155;28;20266;-82
2022/10/04 13:21:05;;;;;;;7.73;4.37;;;;;;;;;;5053930;28;20271;-82
2022/10/04 13:23:58;;;;;;;9.43;4.10;;;;;;;;;;5054749;28;20200;-82
2022/10/04 13:26:37;;;;;;;8.87;3.67;;;;;;;;;;5040655;28;20187;-82
2022/10/04 13:29:03;;;;;;;6.30;2.97;;;;;;;;;;5033450;28;20228;-82
2022/10/04 13:31:35;;;;;;;5.57;3.40;;;;;;;;;;5025585;28;20192;-82
2022/10/04 13:34:20;;;;;;;8.53;4.10;;;;;;;;;;5027356;28;20196;-88
2022/10/04 13:36:59;;;;;;;8.30;3.60;;;;;;;;;;5037794;28;20184;-88
2022/10/04 13:39:44;;;;;;;7.07;3.60;;;;;;;;;;5033705;28;20207;-79
2022/10/04 13:42:15;;;;;;;7.23;3.30;;;;;;;;;;5033437;28;20295;-79
2022/10/04 13:44:42;;;;;;;7.10;3.80;;;;;;;;;;5032010;28;20191;-78
2022/10/04 13:47:28;;;;;;;7.17;3.80;;;;;;;;;;5032177;28;20280;-78
2022/10/04 13:50:00;;;;;;;9.17;3.60;;;;;;;;;;5031140;28;20223;-88
2022/10/04 13:58:33;;;;;;;7.00;3.60;;;;;;;;;;5034495;28;20424;-88
2022/10/04 14:01:19;;;;;;;10.48;3.85;;;;;;;;;;5033744;28;20970;-81
2022/10/04 14:03:45;;;;;;;7.53;4.00;;;;;;;;;;5040158;28;20403;-80
2022/10/04 14:06:23;;;;;;;8.03;3.77;;;;;;;;;;5054348;28;20168;-80
2022/10/04 14:09:02;;;;;;;8.45;3.85;;;;;;;;;;5053504;28;20436;-81
2022/10/04 14:11:57;;;;;;;4.67;3.40;;;;;;;;;;5037257;28;20268;-81
2022/10/04 14:14:53;;;;;;;6.03;3.65;;;;;;;;;;5023296;28;20430;-81
2022/10/04 14:17:40;;;;;;;9.27;3.80;;;;;;;;;;5029453;28;20196;-81
2022/10/04 14:20:31;;;;;;;12.30;4.20;;;;;;;;;;5032328;28;20524;-81
2022/10/04 14:23:12;;;;;;;7.57;3.53;;;;;;;;;;5023108;28;20188;-79
2022/10/04 14:25:50;;;;;;;6.50;3.70;;;;;;;;;;5012571;28;20419;-78
2022/10/04 14:28:37;;;;;;;11.00;3.92;;;;;;;;;;5032034;28;20517;-77
2022/10/04 14:31:18;;;;;;;9.63;3.57;;;;;;;;;;5034026;28;20181;-78
2022/10/04 14:34:05;;;;;;;9.83;3.70;;;;;;;;;;5033555;28;20222;-78
2022/10/04 14:36:39;;;;;;;6.70;3.43;;;;;;;;;;5012733;28;20276;-78
2022/10/04 14:39:12;;;;;;;10.60;4.07;;;;;;;;;;5040044;28;20331;-78
2022/10/04 14:41:57;;;;;;;7.97;3.70;;;;;;;;;;5052781;28;20176;-81
2022/10/04 14:44:29;;;;;;;9.63;3.90;;;;;;;;;;5044285;28;20172;-81
2022/10/04 14:47:18;;;;;;;5.93;3.60;;;;;;;;;;5032634;28;20267;-81
2022/10/04 14:49:56;;;;;;;6.40;3.37;;;;;;;;;;5036620;28;20188;-81
2022/10/04 14:52:40;;;;;;;7.65;3.58;;;;;;;;;;5034969;28;20436;-81
2022/10/04 14:55:10;;;;;;;9.37;3.63;;;;;;;;;;5036459;28;20177;-81
2022/10/04 14:57:36;;;;;;;7.30;4.03;;;;;;;;;;5037732;28;20177;-81
2022/10/04 15:00:16;;;;;;;7.43;3.60;;;;;;;;;;5036335;28;20212;-81
2022/10/04 15:02:48;;;;;;;7.57;3.60;;;;;;;;;;5036442;28;20181;-81
2022/10/04 15:05:21;;;;;;;5.97;3.70;;;;;;;;;;5036206;28;20195;-81
2022/10/04 15:07:49;;;;;;;6.60;3.63;;;;;;;;;;5037315;28;20168;-81
2022/10/04 15:10:28;;;;;;;7.70;4.00;;;;;;;;;;5036191;28;20188;-81
2022/10/04 15:12:57;;;;;;;8.93;3.90;;;;;;;;;;5040501;28;20184;-78
2022/10/04 15:15:31;;;;;;;8.13;4.00;;;;;;;;;;5036456;28;20184;-78
2022/10/04 15:18:09;;;;;;;7.03;3.83;;;;;;;;;;5035921;28;20195;-79
2022/10/04 15:20:56;;;;;;;6.20;3.73;;;;;;;;;;5036766;28;20208;-78
2022/10/04 15:23:34;;;;;;;5.23;3.70;;;;;;;;;;5035479;28;20177;-78
2022/10/04 15:26:26;;;;;;;6.07;3.70;;;;;;;;;;5036642;28;20259;-77
2022/10/04 15:29:07;;;;;;;5.20;3.90;;;;;;;;;;5047784;23;20242;-78
2022/10/04 15:31:36;;;;;;;7.37;3.80;;;;;;;;;;5016902;28;20192;-91
2022/10/04 15:34:08;;;;;;;5.40;4.03;;;;;;;;;;5017481;28;20510;-90
2022/10/04 15:36:41;;;;;;;8.43;3.90;;;;;;;;;;5009937;28;20181;-89
2022/10/04 15:39:10;;;;;;;8.10;4.13;;;;;;;;;;5015339;28;20248;-90
2022/10/04 15:41:48;;;;;;;8.73;4.40;;;;;;;;;;5020720;28;20196;-88
2022/10/04 15:44:27;;;;;;;7.20;4.33;;;;;;;;;;5018861;28;20184;-89
2022/10/04 15:47:14;;;;;;;6.80;4.30;;;;;;;;;;4998088;28;20173;-89
2022/10/04 15:49:52;;;;;;;7.17;3.93;;;;;;;;;;5015141;28;20181;-89
2022/10/04 15:52:37;;;;;;;7.67;4.27;;;;;;;;;;5016623;28;20263;-89
2022/10/04 15:55:21;;;;;;;8.00;4.37;;;;;;;;;;5016947;28;20189;-87
2022/10/04 15:57:47;;;;;;;7.33;4.77;;;;;;;;;;4999712;28;20185;-88
2022/10/04 16:00:25;;;;;;;9.70;4.60;;;;;;;;;;5025468;28;20502;-88
2022/10/04 16:03:09;;;;;;;6.13;3.97;;;;;;;;;;5017296;28;20185;-82
2022/10/04 16:05:45;;;;;;;7.43;4.50;;;;;;;;;;4999116;28;20411;-82
2022/10/04 16:08:14;;;;;;;6.90;4.50;;;;;;;;;;5015418;28;20207;-82
2022/10/04 16:10:52;;;;;;;8.43;4.43;;;;;;;;;;5029575;28;20212;-81
2022/10/04 16:13:22;;;;;;;6.83;4.10;;;;;;;;;;5036067;28;20168;-81
2022/10/04 16:16:08;;;;;;;6.73;4.30;;;;;;;;;;5024505;28;20177;-81